首页
METAR-TAF:

METAR-TAF

机场 :

莫比尔, 阿拉巴马州, 美国

纬度: 30-36-50N, 经度: 088-03-48W, 海拔: 7米

当前天气观测

该预报发布于19分钟前的22:53 UTC
风速8节,风向南转南东,有时为15节阵风
温度 29°C
湿度 74%
气压 1015 hPa
能見度: 16.1公里
少量云层高于3000英尺

METAR: KBFM 202253Z 16008G15KT 10SM FEW030 29/24 A2997 RMK AO2 SLP147 T02940244

时间: 18:12 (23:12 UTC)

预报

该预报发布于5小时和28分钟前的17:44 UTC
预报有效从20日的 18点(UTC)到 21日的 18点(UTC)
风速8节,风向南转南东
能見度: 10公里
多云层高于2000英尺
从 21日的 0200点(UTC)
风速5节,风向
能見度: 10公里
散云层高于3000英尺
散云层高于25000英尺
从 21日的 0900点(UTC)
风速3节,风向南转南东
能見度: 4.8公里
少量云层高于4000英尺
散云层高于25000英尺
轻雾

TAF: KBFM 201744Z 2018/2118 16008KT P6SM BKN020 FM210200 17005KT P6SM SCT030 SCT250 FM210900 15003KT 3SM BR FEW040 SCT250

超过4000个机场的气象观测和天气预报(METAR&TAF报告)。

可查询的气象台以黄色和红色小点在地图上表示。

将鼠标移到小点上方,可查看气象台名称。

然后点击查看天气观测和预报。

如需切换地图:点击带黑十字的绿色按钮放大地图;点击带横线的绿色按钮缩小地图;或者点击绿色箭头查看邻近地区的地图。


METAR-TAF: